createdAt,value
2022-10-02T00:00:36.292Z,6.47
2022-10-02T00:01:53.817Z,6.93
2022-10-02T00:03:17.637Z,11.17
2022-10-02T00:04:44.428Z,11.50
2022-10-02T00:05:51.892Z,15.70
2022-10-02T00:06:57.786Z,8.13
2022-10-02T00:08:05.426Z,9.43
2022-10-02T00:09:10.259Z,8.93
2022-10-02T00:10:32.122Z,15.77
2022-10-02T00:11:44.625Z,4.70
2022-10-02T00:12:50.210Z,7.80
2022-10-02T00:14:02.622Z,10.17
2022-10-02T00:15:15.986Z,6.83
2022-10-02T00:16:24.520Z,11.70
2022-10-02T00:17:42.528Z,9.03
2022-10-02T00:18:45.715Z,7.90
2022-10-02T00:19:47.500Z,9.53
2022-10-02T00:20:57.944Z,8.23
2022-10-02T00:22:09.971Z,13.83
2022-10-02T00:23:19.920Z,21.23
2022-10-02T00:24:32.141Z,13.50
2022-10-02T00:26:17.379Z,7.73
2022-10-02T00:27:22.076Z,6.40
2022-10-02T00:28:26.877Z,13.00
2022-10-02T00:29:51.767Z,7.73
2022-10-02T00:30:56.478Z,8.33
2022-10-02T00:32:16.820Z,12.23
2022-10-02T00:33:31.112Z,6.57
2022-10-02T00:34:41.918Z,6.50
2022-10-02T00:36:02.447Z,8.90
2022-10-02T00:37:12.028Z,10.47
2022-10-02T00:38:49.247Z,7.20
2022-10-02T00:39:57.796Z,18.20
2022-10-02T00:41:02.165Z,16.43
2022-10-02T00:42:49.224Z,10.37
2022-10-02T00:44:09.019Z,14.70
2022-10-02T00:45:35.436Z,10.07
2022-10-02T00:46:54.910Z,12.83
2022-10-02T00:48:37.016Z,4.40
2022-10-02T00:49:53.759Z,10.97
2022-10-02T00:51:33.099Z,7.63
2022-10-02T00:52:53.284Z,6.70
2022-10-02T00:54:23.427Z,8.07
2022-10-02T00:55:33.931Z,9.40
2022-10-02T00:57:04.587Z,11.70
2022-10-02T00:58:40.046Z,8.60
2022-10-02T01:00:11.884Z,10.47
2022-10-02T01:01:19.700Z,10.83
2022-10-02T01:02:24.295Z,11.73
2022-10-02T01:03:53.439Z,9.63
2022-10-02T01:04:55.111Z,12.53
2022-10-02T01:05:57.023Z,11.70
2022-10-02T01:06:58.836Z,8.43
2022-10-02T01:08:01.500Z,9.10
2022-10-02T01:09:03.388Z,9.00
2022-10-02T01:10:05.490Z,13.10
2022-10-02T01:11:08.063Z,16.10
2022-10-02T01:12:10.299Z,12.33
2022-10-02T01:13:12.596Z,12.10
2022-10-02T01:14:15.250Z,8.10
2022-10-02T01:15:19.561Z,11.37
2022-10-02T01:16:21.234Z,10.57
2022-10-02T01:17:33.217Z,15.87
2022-10-02T01:18:35.004Z,14.30
2022-10-02T01:19:41.482Z,10.00
2022-10-02T01:20:48.998Z,10.70
2022-10-02T01:21:57.327Z,9.20
2022-10-02T01:23:01.746Z,10.70
2022-10-02T01:24:13.021Z,10.83
2022-10-02T01:25:15.228Z,7.03
2022-10-02T01:26:17.513Z,17.30
2022-10-02T01:27:19.428Z,6.53
2022-10-02T01:28:22.423Z,8.97
2022-10-02T01:29:24.198Z,9.97
2022-10-02T01:30:26.025Z,10.50
2022-10-02T01:31:28.274Z,15.03
2022-10-02T01:32:30.185Z,16.90
2022-10-02T01:33:32.485Z,10.80
2022-10-02T01:34:34.335Z,9.47
2022-10-02T01:35:39.014Z,4.83
2022-10-02T01:36:40.766Z,10.03
2022-10-02T01:37:45.044Z,9.60
2022-10-02T01:38:49.271Z,14.17
2022-10-02T01:39:52.041Z,7.10
2022-10-02T01:40:55.035Z,15.27
2022-10-02T01:41:56.792Z,9.30
2022-10-02T01:43:02.409Z,11.20
2022-10-02T01:44:04.092Z,8.70
2022-10-02T01:45:08.268Z,14.93
2022-10-02T01:46:30.115Z,9.37
2022-10-02T01:47:56.368Z,20.87
2022-10-02T01:48:57.962Z,5.17
2022-10-02T01:50:14.978Z,12.90
2022-10-02T01:51:24.357Z,13.50
2022-10-02T01:52:57.087Z,6.47
2022-10-02T01:54:26.919Z,12.20
2022-10-02T01:55:44.663Z,7.67
2022-10-02T01:57:18.472Z,5.47
2022-10-02T01:58:53.949Z,6.93
2022-10-02T02:00:15.785Z,10.27
2022-10-02T02:01:28.000Z,5.23
2022-10-02T02:02:33.877Z,10.83
2022-10-02T02:03:55.003Z,11.60
2022-10-02T02:05:08.726Z,6.93
2022-10-02T02:06:48.024Z,11.80
2022-10-02T02:07:55.272Z,10.00
2022-10-02T02:09:18.845Z,11.23
2022-10-02T02:10:35.602Z,7.37
2022-10-02T02:11:44.528Z,11.27
2022-10-02T02:12:58.906Z,11.00
2022-10-02T02:14:19.998Z,7.63
2022-10-02T02:15:36.869Z,14.63
2022-10-02T02:16:44.254Z,5.70
2022-10-02T02:17:52.341Z,9.70
2022-10-02T02:19:20.076Z,7.70
2022-10-02T02:20:42.074Z,13.13
2022-10-02T02:22:01.388Z,5.53
2022-10-02T02:23:11.094Z,6.13
2022-10-02T02:24:24.666Z,6.27
2022-10-02T02:25:30.178Z,8.83
2022-10-02T02:26:33.384Z,8.93
2022-10-02T02:27:41.302Z,10.03
2022-10-02T02:28:51.098Z,6.17
2022-10-02T02:29:57.107Z,6.40
2022-10-02T02:31:01.449Z,10.90
2022-10-02T02:32:08.560Z,7.00
2022-10-02T02:33:46.268Z,9.33
2022-10-02T02:34:53.669Z,11.93
2022-10-02T02:36:01.093Z,10.20
2022-10-02T02:37:08.368Z,10.60
2022-10-02T02:38:15.605Z,6.77
2022-10-02T02:39:23.405Z,6.30
2022-10-02T02:40:30.455Z,9.37
2022-10-02T02:41:38.875Z,11.97
2022-10-02T02:42:53.679Z,8.33
2022-10-02T02:44:11.258Z,12.47
2022-10-02T02:45:19.892Z,7.50
2022-10-02T02:47:03.096Z,4.60
2022-10-02T02:48:16.769Z,9.13
2022-10-02T02:49:18.664Z,4.10
2022-10-02T02:50:41.448Z,13.27
2022-10-02T02:51:44.788Z,17.87
2022-10-02T02:53:01.742Z,11.50
2022-10-02T02:54:21.560Z,5.67
2022-10-02T02:55:29.044Z,3.50
2022-10-02T02:56:33.326Z,13.50
2022-10-02T02:57:42.384Z,13.13
2022-10-02T02:58:49.336Z,6.57
2022-10-02T02:59:53.833Z,7.00
2022-10-02T03:00:56.161Z,13.00
2022-10-02T03:01:58.877Z,8.53
2022-10-02T03:03:00.661Z,6.60
2022-10-02T03:04:02.530Z,6.33
2022-10-02T03:05:14.578Z,15.63
2022-10-02T03:06:16.366Z,4.03
2022-10-02T03:07:18.338Z,16.33
2022-10-02T03:08:28.052Z,9.00
2022-10-02T03:09:32.512Z,7.53
2022-10-02T03:10:51.046Z,13.27
2022-10-02T03:12:07.984Z,9.67
2022-10-02T03:13:31.290Z,12.10
2022-10-02T03:14:43.921Z,3.87
2022-10-02T03:15:55.483Z,12.20
2022-10-02T03:17:07.892Z,6.50
2022-10-02T03:18:34.711Z,7.43
2022-10-02T03:19:51.257Z,10.40
2022-10-02T03:21:05.430Z,17.43
2022-10-02T03:22:10.002Z,9.10
2022-10-02T03:23:19.779Z,19.77
2022-10-02T03:24:28.636Z,15.83
2022-10-02T03:25:43.064Z,6.37
2022-10-02T03:26:52.991Z,5.93
2022-10-02T03:28:56.045Z,9.03
2022-10-02T03:30:09.804Z,12.80
2022-10-02T03:31:12.592Z,7.37
2022-10-02T03:32:16.838Z,7.33
2022-10-02T03:33:19.678Z,8.00
2022-10-02T03:34:23.589Z,5.00
2022-10-02T03:35:25.631Z,7.50
2022-10-02T03:36:27.772Z,6.93
2022-10-02T03:37:29.768Z,11.23
2022-10-02T03:38:33.059Z,9.70
2022-10-02T03:39:34.862Z,9.23
2022-10-02T03:40:36.707Z,7.87
2022-10-02T03:41:38.732Z,14.50
2022-10-02T03:42:40.402Z,9.50
2022-10-02T03:43:42.010Z,11.40
2022-10-02T03:44:44.018Z,13.10
2022-10-02T03:45:51.298Z,6.67
2022-10-02T03:46:53.464Z,6.70
2022-10-02T03:47:55.263Z,13.53
2022-10-02T03:48:56.954Z,8.17
2022-10-02T03:49:58.684Z,13.10
2022-10-02T03:51:00.499Z,16.10
2022-10-02T03:52:02.182Z,10.60
2022-10-02T03:53:13.102Z,15.43
2022-10-02T03:54:21.316Z,7.57
2022-10-02T03:55:37.953Z,7.10
2022-10-02T03:56:59.903Z,14.63
2022-10-02T03:58:16.006Z,9.30
2022-10-02T03:59:46.017Z,15.77
2022-10-02T04:00:50.358Z,12.73
2022-10-02T04:01:55.700Z,10.50
2022-10-02T04:03:10.793Z,17.03
2022-10-02T04:04:18.380Z,7.97
2022-10-02T04:05:26.474Z,10.60
2022-10-02T04:07:13.135Z,11.03
2022-10-02T04:08:19.285Z,9.70
2022-10-02T04:09:29.368Z,10.97
2022-10-02T04:10:38.832Z,10.80
2022-10-02T04:12:09.030Z,10.03
2022-10-02T04:13:27.586Z,9.20
2022-10-02T04:14:49.305Z,7.03
2022-10-02T04:15:57.912Z,11.23
2022-10-02T04:17:14.298Z,13.33
2022-10-02T04:18:22.779Z,12.03
2022-10-02T04:19:29.009Z,7.67
2022-10-02T04:20:41.762Z,21.07
2022-10-02T04:21:54.530Z,9.33
2022-10-02T04:23:05.795Z,12.23
2022-10-02T04:24:13.347Z,8.43
2022-10-02T04:25:20.676Z,7.57
2022-10-02T04:26:30.510Z,6.93
2022-10-02T04:27:40.452Z,9.67
2022-10-02T04:28:55.434Z,12.47
2022-10-02T04:30:01.580Z,8.20
2022-10-02T04:31:09.082Z,6.67
2022-10-02T04:32:26.599Z,19.90
2022-10-02T04:33:28.769Z,11.47
2022-10-02T04:34:30.287Z,5.10
2022-10-02T04:35:44.964Z,9.03
2022-10-02T04:37:20.838Z,11.70
2022-10-02T04:38:28.621Z,12.53
2022-10-02T04:40:09.426Z,9.63
2022-10-02T04:41:47.636Z,10.63
2022-10-02T04:42:49.155Z,11.57
2022-10-02T04:44:21.657Z,10.20
2022-10-02T04:46:24.681Z,9.00
2022-10-02T04:47:44.393Z,17.63
2022-10-02T04:48:54.860Z,10.83
2022-10-02T04:50:17.451Z,5.17
2022-10-02T04:51:53.169Z,11.47
2022-10-02T04:53:12.490Z,7.83
2022-10-02T04:55:02.205Z,12.87
2022-10-02T04:56:38.668Z,12.80
2022-10-02T04:58:01.893Z,12.00
2022-10-02T04:59:31.053Z,12.60
2022-10-02T05:00:42.729Z,21.37
2022-10-02T05:01:50.121Z,15.20
2022-10-02T05:03:05.239Z,11.43
2022-10-02T05:04:39.561Z,11.40
2022-10-02T05:06:07.512Z,9.13
2022-10-02T05:07:44.478Z,8.03
2022-10-02T05:08:59.629Z,14.13
2022-10-02T05:10:21.632Z,20.27
2022-10-02T05:12:13.386Z,15.23
2022-10-02T05:13:33.551Z,10.30
2022-10-02T05:14:56.179Z,20.17
2022-10-02T05:16:31.685Z,21.20
2022-10-02T05:18:15.778Z,21.23
2022-10-02T05:19:34.615Z,22.87
2022-10-02T05:20:45.729Z,16.10
2022-10-02T05:22:13.913Z,8.63
2022-10-02T05:23:21.510Z,19.13
2022-10-02T05:24:39.305Z,20.90
2022-10-02T05:26:02.486Z,23.97
2022-10-02T05:27:19.874Z,6.73
2022-10-02T05:28:49.652Z,18.67
2022-10-02T05:30:05.825Z,15.20
2022-10-02T05:31:13.703Z,13.10
2022-10-02T05:32:18.259Z,12.23
2022-10-02T05:33:48.462Z,18.77
2022-10-02T05:35:14.978Z,22.23
2022-10-02T05:36:28.499Z,18.43
2022-10-02T05:37:30.055Z,19.97
2022-10-02T05:38:40.788Z,18.73
2022-10-02T05:39:58.319Z,17.40
2022-10-02T05:41:23.529Z,21.47
2022-10-02T05:42:43.154Z,23.37
2022-10-02T05:44:20.236Z,19.90
2022-10-02T05:45:27.563Z,15.93
2022-10-02T05:46:35.667Z,17.23
2022-10-02T05:47:42.719Z,12.13
2022-10-02T05:48:47.510Z,20.80
2022-10-02T05:49:56.378Z,20.93
2022-10-02T05:51:12.632Z,22.97
2022-10-02T05:52:22.401Z,24.10
2022-10-02T05:53:44.234Z,42.63
2022-10-02T05:54:55.628Z,27.70
2022-10-02T05:56:09.527Z,34.63
2022-10-02T05:57:26.036Z,31.70
2022-10-02T05:58:37.614Z,40.40
2022-10-02T05:59:50.766Z,31.93
2022-10-02T06:01:04.800Z,27.77
2022-10-02T06:02:35.592Z,27.93
2022-10-02T06:03:51.394Z,20.27
2022-10-02T06:05:02.700Z,21.00
2022-10-02T06:06:16.308Z,24.30
2022-10-02T06:07:19.219Z,21.93
2022-10-02T06:08:36.483Z,22.00
2022-10-02T06:09:48.523Z,18.13
2022-10-02T06:10:54.188Z,19.57
2022-10-02T06:12:05.130Z,25.17
2022-10-02T06:13:16.622Z,24.33
2022-10-02T06:14:34.524Z,25.53
2022-10-02T06:15:43.003Z,23.70
2022-10-02T06:16:49.794Z,22.93
2022-10-02T06:18:09.040Z,19.77
2022-10-02T06:19:26.086Z,15.43
2022-10-02T06:20:50.820Z,24.93
2022-10-02T06:22:01.530Z,10.40
2022-10-02T06:23:22.620Z,17.63
2022-10-02T06:24:39.812Z,19.43
2022-10-02T06:25:49.808Z,22.33
2022-10-02T06:27:01.030Z,15.17
2022-10-02T06:28:14.742Z,20.00
2022-10-02T06:29:27.970Z,18.57
2022-10-02T06:30:31.869Z,17.10
2022-10-02T06:31:48.586Z,28.97
2022-10-02T06:32:58.774Z,22.53
2022-10-02T06:34:00.402Z,20.93
2022-10-02T06:35:10.364Z,19.90
2022-10-02T06:36:14.653Z,16.13
2022-10-02T06:37:22.308Z,20.13
2022-10-02T06:39:09.356Z,24.83
2022-10-02T06:40:19.771Z,14.83
2022-10-02T06:41:29.029Z,19.63
2022-10-02T06:42:36.571Z,17.27
2022-10-02T06:44:04.485Z,20.00
2022-10-02T06:45:32.391Z,17.73
2022-10-02T06:47:06.984Z,18.23
2022-10-02T06:48:22.365Z,24.70
2022-10-02T06:49:48.182Z,17.83
2022-10-02T06:51:07.760Z,12.57
2022-10-02T06:52:33.375Z,16.00
2022-10-02T06:54:01.370Z,19.90
2022-10-02T06:55:31.253Z,17.73
2022-10-02T06:57:15.354Z,19.43
2022-10-02T06:58:28.947Z,14.60
2022-10-02T07:00:01.724Z,16.23
2022-10-02T07:01:10.290Z,13.30
2022-10-02T07:02:40.070Z,48.67
2022-10-02T07:03:55.265Z,30.63
2022-10-02T07:05:30.699Z,12.40
2022-10-02T07:06:58.636Z,19.40
2022-10-02T07:08:16.663Z,21.33
2022-10-02T07:09:32.514Z,14.13
2022-10-02T07:10:49.351Z,14.30
2022-10-02T07:12:26.849Z,19.13
2022-10-02T07:13:37.472Z,20.33
2022-10-02T07:15:17.122Z,9.53
2022-10-02T07:16:30.863Z,9.80
2022-10-02T07:17:54.351Z,15.87
2022-10-02T07:19:33.524Z,15.17
2022-10-02T07:20:56.987Z,16.90
2022-10-02T07:22:43.525Z,22.53
2022-10-02T07:23:53.169Z,13.10
2022-10-02T07:24:58.556Z,14.47
2022-10-02T07:26:07.497Z,16.67
2022-10-02T07:27:34.221Z,21.67
2022-10-02T07:29:04.989Z,16.43
2022-10-02T07:30:11.844Z,26.33
2022-10-02T07:31:38.955Z,15.97
2022-10-02T07:32:48.617Z,22.90
2022-10-02T07:34:06.529Z,17.00
2022-10-02T07:35:23.790Z,26.63
2022-10-02T07:36:40.776Z,17.37
2022-10-02T07:38:23.303Z,15.37
2022-10-02T07:39:55.538Z,7.57
2022-10-02T07:41:25.108Z,34.07
2022-10-02T07:42:38.963Z,11.83
2022-10-02T07:44:17.183Z,11.20
2022-10-02T07:45:27.805Z,13.27
2022-10-02T07:46:38.968Z,12.97
2022-10-02T07:47:49.644Z,16.40
2022-10-02T07:49:23.378Z,8.73
2022-10-02T07:50:36.902Z,15.57
2022-10-02T07:52:03.226Z,17.73
2022-10-02T07:53:19.852Z,28.03
2022-10-02T07:54:44.061Z,17.27
2022-10-02T07:55:55.343Z,10.37
2022-10-02T07:57:05.173Z,12.63
2022-10-02T07:58:13.685Z,21.80
2022-10-02T07:59:17.412Z,12.77
2022-10-02T08:00:23.317Z,17.37
2022-10-02T08:01:31.513Z,9.10
2022-10-02T08:03:10.193Z,13.97
2022-10-02T08:04:21.438Z,12.83
2022-10-02T08:05:28.349Z,11.37
2022-10-02T08:06:32.350Z,7.10
2022-10-02T08:07:34.408Z,14.30
2022-10-02T08:08:47.705Z,5.50
2022-10-02T08:09:52.269Z,9.50
2022-10-02T08:11:02.637Z,12.83
2022-10-02T08:12:15.455Z,20.37
2022-10-02T08:13:28.441Z,16.13
2022-10-02T08:14:39.861Z,16.27
2022-10-02T08:15:45.632Z,8.77
2022-10-02T08:16:53.297Z,10.67
2022-10-02T08:18:11.016Z,9.77
2022-10-02T08:19:33.586Z,7.17
2022-10-02T08:20:43.767Z,7.87
2022-10-02T08:21:55.772Z,8.17
2022-10-02T08:23:07.212Z,6.17
2022-10-02T08:24:16.062Z,9.70
2022-10-02T08:25:25.487Z,6.87
2022-10-02T08:26:36.119Z,8.40
2022-10-02T08:27:49.990Z,18.00
2022-10-02T08:28:54.639Z,9.20
2022-10-02T08:30:03.594Z,7.80
2022-10-02T08:31:12.068Z,10.63
2022-10-02T08:32:14.549Z,7.73
2022-10-02T08:33:21.293Z,6.73
2022-10-02T08:34:25.058Z,5.83
2022-10-02T08:35:40.343Z,5.90
2022-10-02T08:37:06.244Z,8.07
2022-10-02T08:38:41.434Z,11.70
2022-10-02T08:40:04.473Z,7.73
2022-10-02T08:41:09.224Z,6.60
2022-10-02T08:42:38.767Z,3.53
2022-10-02T08:44:02.502Z,7.43
2022-10-02T08:45:34.353Z,8.43
2022-10-02T08:46:49.527Z,4.83
2022-10-02T08:48:28.452Z,1.50
2022-10-02T08:50:06.265Z,4.20
2022-10-02T08:51:41.686Z,5.70
2022-10-02T08:53:17.576Z,2.47
2022-10-02T08:54:47.378Z,8.97
2022-10-02T08:55:59.062Z,3.90
2022-10-02T08:57:12.319Z,4.10
2022-10-02T08:58:29.382Z,4.30
2022-10-02T08:59:49.103Z,6.07
2022-10-02T09:01:20.824Z,2.47
2022-10-02T09:02:53.427Z,4.03
2022-10-02T09:04:16.195Z,5.17
2022-10-02T09:05:56.073Z,1.93
2022-10-02T09:07:36.953Z,4.33
2022-10-02T09:09:15.956Z,0.90
2022-10-02T09:10:45.954Z,3.07
2022-10-02T09:12:11.495Z,4.50
2022-10-02T09:14:10.728Z,1.63
2022-10-02T09:15:26.300Z,4.47
2022-10-02T09:17:03.275Z,11.20
2022-10-02T09:18:23.327Z,1.70
2022-10-02T09:19:40.459Z,1.50
2022-10-02T09:20:48.485Z,5.07
2022-10-02T09:22:11.749Z,1.50
2022-10-02T09:23:19.460Z,2.33
2022-10-02T09:24:55.366Z,1.63
2022-10-02T09:26:10.309Z,0.83
2022-10-02T09:27:34.982Z,0.80
2022-10-02T09:29:20.194Z,2.20
2022-10-02T09:31:03.727Z,0.70
2022-10-02T09:32:15.872Z,1.00
2022-10-02T09:33:40.047Z,5.73
2022-10-02T09:35:19.230Z,2.70
2022-10-02T09:36:45.961Z,1.80
2022-10-02T09:38:29.708Z,1.17
2022-10-02T09:39:47.454Z,0.70
2022-10-02T09:41:03.262Z,1.80
2022-10-02T09:42:23.487Z,1.23
2022-10-02T09:44:00.109Z,3.00
2022-10-02T09:45:33.240Z,1.10
2022-10-02T09:46:48.175Z,0.70
2022-10-02T09:48:27.506Z,1.63
2022-10-02T09:49:53.880Z,0.63
2022-10-02T09:51:20.751Z,2.13
2022-10-02T09:52:32.860Z,0.80
2022-10-02T09:53:40.573Z,1.00
2022-10-02T09:55:00.555Z,3.13
2022-10-02T09:56:14.253Z,6.40
2022-10-02T09:57:21.831Z,2.70
2022-10-02T09:58:44.649Z,1.23
2022-10-02T10:00:14.421Z,3.10
2022-10-02T10:01:28.451Z,8.73
2022-10-02T10:02:35.965Z,5.27
2022-10-02T10:03:57.866Z,2.30
2022-10-02T10:05:20.870Z,3.77
2022-10-02T10:06:41.771Z,4.43
2022-10-02T10:07:52.463Z,6.97
2022-10-02T10:09:14.782Z,5.40
2022-10-02T10:10:56.974Z,3.30
2022-10-02T10:12:28.571Z,3.93
2022-10-02T10:13:51.892Z,3.03
2022-10-02T10:15:09.011Z,10.63
2022-10-02T10:16:29.978Z,3.27
2022-10-02T10:17:43.789Z,3.13
2022-10-02T10:18:56.406Z,11.90
2022-10-02T10:20:22.926Z,8.97
2022-10-02T10:22:02.324Z,3.33
2022-10-02T10:23:37.801Z,9.77
2022-10-02T10:24:42.209Z,4.33
2022-10-02T10:25:52.876Z,6.77
2022-10-02T10:27:08.158Z,8.47
2022-10-02T10:28:15.864Z,4.80
2022-10-02T10:29:39.954Z,11.80
2022-10-02T10:30:44.562Z,3.43
2022-10-02T10:32:10.626Z,3.93
2022-10-02T10:33:27.951Z,5.53
2022-10-02T10:34:35.552Z,2.70
2022-10-02T10:35:37.311Z,2.13
2022-10-02T10:37:03.812Z,3.47
2022-10-02T10:38:33.361Z,6.47
2022-10-02T10:39:43.886Z,5.93
2022-10-02T10:40:54.705Z,5.70
2022-10-02T10:42:24.239Z,4.30
2022-10-02T10:43:36.505Z,9.63
2022-10-02T10:45:03.074Z,6.73
2022-10-02T10:46:17.618Z,5.10
2022-10-02T10:47:35.845Z,5.60
2022-10-02T10:48:40.432Z,3.27
2022-10-02T10:50:17.626Z,3.97
2022-10-02T10:51:45.719Z,6.30
2022-10-02T10:53:11.767Z,3.93
2022-10-02T10:54:31.624Z,3.50
2022-10-02T10:55:38.347Z,4.57
2022-10-02T10:56:59.542Z,3.30
2022-10-02T10:58:23.020Z,6.80
2022-10-02T10:59:51.077Z,7.07
2022-10-02T11:01:19.719Z,7.03
2022-10-02T11:02:44.508Z,5.17
2022-10-02T11:04:17.559Z,9.03
2022-10-02T11:05:37.554Z,6.73
2022-10-02T11:06:58.389Z,5.27
2022-10-02T11:08:06.251Z,9.00
2022-10-02T11:09:35.305Z,8.50
2022-10-02T11:11:14.805Z,5.40
2022-10-02T11:12:47.167Z,5.50
2022-10-02T11:14:02.561Z,5.30
2022-10-02T11:15:22.628Z,4.37
2022-10-02T11:16:39.585Z,4.73
2022-10-02T11:18:15.455Z,9.80
2022-10-02T11:19:23.257Z,4.03
2022-10-02T11:20:44.208Z,4.30
2022-10-02T11:21:56.634Z,3.50
2022-10-02T11:23:33.718Z,7.93
2022-10-02T11:25:16.272Z,7.60
2022-10-02T11:27:32.073Z,5.83
2022-10-02T11:28:56.619Z,3.23
2022-10-02T11:30:05.514Z,3.67
2022-10-02T11:31:29.970Z,1.50
2022-10-02T11:33:02.377Z,1.70
2022-10-02T11:34:20.099Z,1.63
2022-10-02T11:35:29.425Z,1.20
2022-10-02T11:36:52.572Z,2.00
2022-10-02T11:38:15.550Z,4.80
2022-10-02T11:39:36.426Z,2.60
2022-10-02T11:40:41.536Z,1.60
2022-10-02T11:41:53.672Z,1.70
2022-10-02T11:43:32.835Z,2.30
2022-10-02T11:44:47.694Z,2.00
2022-10-02T11:46:04.741Z,1.43
2022-10-02T11:47:18.519Z,2.13
2022-10-02T11:48:44.779Z,1.50
2022-10-02T11:50:15.753Z,1.40
2022-10-02T11:51:46.313Z,4.90
2022-10-02T11:53:32.654Z,20.40
2022-10-02T11:54:44.970Z,6.97
2022-10-02T11:55:57.171Z,3.80
2022-10-02T11:57:23.509Z,2.80
2022-10-02T11:58:45.481Z,3.90
2022-10-02T12:00:25.910Z,8.53
2022-10-02T12:01:43.196Z,2.97
2022-10-02T12:02:56.414Z,2.00
2022-10-02T12:04:26.507Z,5.07
2022-10-02T12:05:54.783Z,3.33
2022-10-02T12:07:10.723Z,1.20
2022-10-02T12:08:30.259Z,1.00
2022-10-02T12:09:40.779Z,2.50
2022-10-02T12:11:06.279Z,2.97
2022-10-02T12:12:42.290Z,3.30
2022-10-02T12:14:05.132Z,9.77
2022-10-02T12:15:24.017Z,1.73
2022-10-02T12:16:34.987Z,1.20
2022-10-02T12:18:02.212Z,2.37
2022-10-02T12:19:31.464Z,4.10
2022-10-02T12:21:26.224Z,2.67
2022-10-02T12:23:02.866Z,1.77
2022-10-02T12:24:37.714Z,1.70
2022-10-02T12:26:34.743Z,2.20
2022-10-02T12:27:45.605Z,0.90
2022-10-02T12:29:00.516Z,2.87
2022-10-02T12:30:14.898Z,1.23
2022-10-02T12:31:25.344Z,1.20
2022-10-02T12:32:53.796Z,1.33
2022-10-02T12:34:01.344Z,1.30
2022-10-02T12:35:09.562Z,1.10
2022-10-02T12:36:34.015Z,1.10
2022-10-02T12:38:00.526Z,0.80
2022-10-02T12:39:22.184Z,5.40
2022-10-02T12:40:23.875Z,8.43
2022-10-02T12:42:04.045Z,7.03
2022-10-02T12:43:16.616Z,1.03
2022-10-02T12:44:33.568Z,1.20
2022-10-02T12:45:58.943Z,1.37
2022-10-02T12:47:40.238Z,1.23
2022-10-02T12:49:03.138Z,1.40
2022-10-02T12:50:46.579Z,1.80
2022-10-02T12:52:16.381Z,1.80
2022-10-02T12:53:45.451Z,0.77
2022-10-02T12:55:09.538Z,0.83
2022-10-02T12:56:45.834Z,1.13
2022-10-02T12:58:06.035Z,0.80
2022-10-02T12:59:26.920Z,0.80
2022-10-02T13:00:52.240Z,0.77
2022-10-02T13:02:56.114Z,1.77
2022-10-02T13:04:10.937Z,0.70
2022-10-02T13:05:46.797Z,1.13
2022-10-02T13:06:58.628Z,1.50
2022-10-02T13:08:18.563Z,1.50
2022-10-02T13:09:20.816Z,2.80
2022-10-02T13:10:30.846Z,1.90
2022-10-02T13:12:11.610Z,2.07
2022-10-02T13:13:36.180Z,2.97
2022-10-02T13:14:45.804Z,2.20
2022-10-02T13:16:08.582Z,1.40
2022-10-02T13:17:32.096Z,1.00
2022-10-02T13:18:58.775Z,4.60
2022-10-02T13:20:17.411Z,1.73
2022-10-02T13:21:39.145Z,1.00
2022-10-02T13:22:59.892Z,1.43
2022-10-02T13:24:24.903Z,0.60
2022-10-02T13:25:44.719Z,0.50
2022-10-02T13:26:54.097Z,3.77
2022-10-02T13:28:04.998Z,0.93
2022-10-02T13:29:13.721Z,0.50
2022-10-02T13:30:18.016Z,1.43
2022-10-02T13:31:26.867Z,0.50
2022-10-02T13:32:45.256Z,1.13
2022-10-02T13:34:19.932Z,1.03
2022-10-02T13:35:48.653Z,3.90
2022-10-02T13:37:19.080Z,0.97
2022-10-02T13:38:29.797Z,1.07
2022-10-02T13:39:46.502Z,2.40
2022-10-02T13:41:17.576Z,0.83
2022-10-02T13:42:37.491Z,2.27
2022-10-02T13:44:04.456Z,1.23
2022-10-02T13:45:06.168Z,1.63
2022-10-02T13:46:19.811Z,0.80
2022-10-02T13:47:33.406Z,1.07
2022-10-02T13:48:55.073Z,1.07
2022-10-02T13:50:17.917Z,1.10
2022-10-02T13:51:29.354Z,3.33
2022-10-02T13:52:33.682Z,3.33
2022-10-02T13:53:41.817Z,1.17
2022-10-02T13:54:43.479Z,3.47
2022-10-02T13:55:51.814Z,1.40
2022-10-02T13:57:37.501Z,1.50
2022-10-02T13:58:39.480Z,1.50
2022-10-02T14:00:02.156Z,1.43
2022-10-02T14:01:25.996Z,4.23
2022-10-02T14:03:16.700Z,6.47
2022-10-02T14:04:34.524Z,2.83
2022-10-02T14:06:00.580Z,2.83
2022-10-02T14:07:39.713Z,1.83
2022-10-02T14:08:55.185Z,2.40
2022-10-02T14:10:02.531Z,1.80
2022-10-02T14:11:30.069Z,2.10
2022-10-02T14:12:57.846Z,5.00
2022-10-02T14:14:24.114Z,8.70
2022-10-02T14:16:02.474Z,5.27
2022-10-02T14:17:13.414Z,7.20
2022-10-02T14:18:53.112Z,8.90
2022-10-02T14:19:54.863Z,3.07
2022-10-02T14:21:40.914Z,5.70
2022-10-02T14:23:00.974Z,7.30
2022-10-02T14:24:05.619Z,3.60
2022-10-02T14:25:22.950Z,4.20
2022-10-02T14:26:44.925Z,1.63
2022-10-02T14:27:46.528Z,1.20
2022-10-02T14:28:59.037Z,1.10
2022-10-02T14:30:18.972Z,1.17
2022-10-02T14:31:29.836Z,0.80
2022-10-02T14:32:53.901Z,0.80
2022-10-02T14:34:15.949Z,0.77
2022-10-02T14:35:34.560Z,1.93
2022-10-02T14:37:10.378Z,5.47
2022-10-02T14:38:44.716Z,7.33
2022-10-02T14:39:47.915Z,1.60
2022-10-02T14:40:58.056Z,1.47
2022-10-02T14:42:25.262Z,1.27
2022-10-02T14:43:33.487Z,7.97
2022-10-02T14:45:00.537Z,6.50
2022-10-02T14:46:50.392Z,2.67
2022-10-02T14:48:01.366Z,2.00
2022-10-02T14:49:27.562Z,3.47
2022-10-02T14:50:55.193Z,1.63
2022-10-02T14:52:06.331Z,1.50
2022-10-02T14:53:26.766Z,1.70
2022-10-02T14:54:50.119Z,1.40
2022-10-02T14:56:19.945Z,2.00
2022-10-02T14:57:55.369Z,2.37
2022-10-02T14:59:28.495Z,3.73
2022-10-02T15:01:14.878Z,4.47
2022-10-02T15:02:47.525Z,4.50
2022-10-02T15:04:14.994Z,4.03
2022-10-02T15:05:34.846Z,3.70
2022-10-02T15:06:36.494Z,1.90
2022-10-02T15:07:40.488Z,1.80
2022-10-02T15:08:50.128Z,1.50
2022-10-02T15:10:26.454Z,1.80
2022-10-02T15:11:51.810Z,1.30
2022-10-02T15:13:10.171Z,3.47
2022-10-02T15:14:26.777Z,1.40
2022-10-02T15:15:40.527Z,1.50
2022-10-02T15:17:03.956Z,1.23
2022-10-02T15:18:38.430Z,1.87
2022-10-02T15:19:49.951Z,3.77
2022-10-02T15:21:00.949Z,2.20
2022-10-02T15:22:14.768Z,3.40
2022-10-02T15:23:50.885Z,2.70
2022-10-02T15:25:17.935Z,2.60
2022-10-02T15:26:48.641Z,2.30
2022-10-02T15:28:18.150Z,3.33
2022-10-02T15:29:58.519Z,2.73
2022-10-02T15:31:14.205Z,1.73
2022-10-02T15:32:53.447Z,2.17
2022-10-02T15:34:11.028Z,2.30
2022-10-02T15:35:19.455Z,2.03
2022-10-02T15:36:35.227Z,2.10
2022-10-02T15:38:11.122Z,2.13
2022-10-02T15:39:37.013Z,1.87
2022-10-02T15:41:01.902Z,2.20
2022-10-02T15:42:09.236Z,2.70
2022-10-02T15:43:16.823Z,16.13
2022-10-02T15:44:32.104Z,4.17
2022-10-02T15:45:40.778Z,3.13
2022-10-02T15:46:56.374Z,2.13
2022-10-02T15:48:19.569Z,3.27
2022-10-02T15:49:44.439Z,2.30
2022-10-02T15:50:58.691Z,3.23
2022-10-02T15:52:24.113Z,2.93
2022-10-02T15:53:44.034Z,2.90
2022-10-02T15:55:00.464Z,2.50
2022-10-02T15:56:02.177Z,2.80
2022-10-02T15:57:32.488Z,6.37
2022-10-02T15:58:52.893Z,2.87
2022-10-02T15:59:54.720Z,2.20
2022-10-02T16:01:04.356Z,3.33
2022-10-02T16:02:27.227Z,2.83
2022-10-02T16:03:54.047Z,3.33
2022-10-02T16:05:15.386Z,2.33
2022-10-02T16:06:35.910Z,3.43
2022-10-02T16:07:57.744Z,2.73
2022-10-02T16:09:06.557Z,3.33
2022-10-02T16:10:26.000Z,5.63
2022-10-02T16:11:50.619Z,5.80
2022-10-02T16:13:08.727Z,3.57
2022-10-02T16:14:19.831Z,2.93
2022-10-02T16:15:32.373Z,4.93
2022-10-02T16:16:37.195Z,4.50
2022-10-02T16:18:02.344Z,5.80
2022-10-02T16:19:16.364Z,6.03
2022-10-02T16:20:25.402Z,9.23
2022-10-02T16:21:46.058Z,5.83
2022-10-02T16:23:13.083Z,5.03
2022-10-02T16:24:36.465Z,4.53
2022-10-02T16:25:52.537Z,4.50
2022-10-02T16:27:18.019Z,4.70
2022-10-02T16:28:34.299Z,7.17
2022-10-02T16:30:02.974Z,6.77
2022-10-02T16:31:39.997Z,4.63
2022-10-02T16:33:03.383Z,5.07
2022-10-02T16:34:21.597Z,4.67
2022-10-02T16:36:01.169Z,3.83
2022-10-02T16:37:26.539Z,11.13
2022-10-02T16:38:56.116Z,9.47
2022-10-02T16:40:03.373Z,3.30
2022-10-02T16:41:36.996Z,3.63
2022-10-02T16:42:53.149Z,4.30
2022-10-02T16:43:59.173Z,4.37
2022-10-02T16:45:19.887Z,4.67
2022-10-02T16:46:32.076Z,5.23
2022-10-02T16:47:50.823Z,7.13
2022-10-02T16:48:52.722Z,7.30
2022-10-02T16:50:16.979Z,6.00
2022-10-02T16:51:39.152Z,5.90
2022-10-02T16:52:44.781Z,13.83
2022-10-02T16:54:13.640Z,524.70
2022-10-02T16:55:21.075Z,366.17
2022-10-02T16:56:40.385Z,146.27
2022-10-02T16:57:42.091Z,80.03
2022-10-02T16:59:12.912Z,48.97
2022-10-02T17:00:35.266Z,12.20
2022-10-02T17:02:05.505Z,9.73
2022-10-02T17:03:24.119Z,7.07
2022-10-02T17:04:59.741Z,6.50
2022-10-02T17:06:29.549Z,5.60
2022-10-02T17:08:03.472Z,7.40
2022-10-02T17:09:14.782Z,5.40